Time;durP1;ratioP1;P1;durP2;ratioP2;P2;SDS_P1;SDS_P2;PMS_P1;PMS_P2;Temp;Humidity;BMP_temperature;BMP_pressure;BME280_temperature;BME280_humidity;BME280_pressure;Samples;Min_cycle;Max_cycle;Signal;HPM_P1;HPM_P2
2022/11/28 00:01:45;;;;;;;48.83;31.15;;;;;;;6.70;79.92;101916.19;4920305;28;20186;-82
2022/11/28 00:04:13;;;;;;;45.38;30.02;;;;;;;6.63;80.35;101890.13;4921876;28;20407;-81
2022/11/28 00:06:44;;;;;;;47.05;29.73;;;;;;;6.91;79.56;101949.38;4921551;29;20062;-81
2022/11/28 00:09:13;;;;;;;50.80;29.13;;;;;;;6.78;79.96;101919.28;4933572;28;20058;-80
2022/11/28 00:11:43;;;;;;;44.15;28.83;;;;;;;6.83;79.54;101927.81;4938075;28;20265;-82
2022/11/28 00:14:12;;;;;;;46.45;28.10;;;;;;;6.78;79.50;101911.38;4937818;28;20346;-80
2022/11/28 00:16:42;;;;;;;49.47;27.13;;;;;;;6.72;79.56;101895.84;4939500;28;20137;-82
2022/11/28 00:19:09;;;;;;;42.75;28.05;;;;;;;6.37;79.28;101851.03;4939484;28;20058;-81
2022/11/28 00:21:37;;;;;;;40.33;26.92;;;;;;;6.80;80.30;101918.28;4935105;28;20054;-82
2022/11/28 00:24:05;;;;;;;40.40;26.58;;;;;;;5.49;79.06;101664.84;4937879;28;20553;-82
2022/11/28 00:26:36;;;;;;;41.20;27.23;;;;;;;6.90;78.86;101907.25;4937243;28;20061;-81
2022/11/28 00:29:05;;;;;;;41.78;26.75;;;;;;;6.92;79.74;101906.22;4939320;28;20058;-82
2022/11/28 00:31:40;;;;;;;36.95;25.88;;;;;;;7.00;79.21;101919.88;4938225;28;20165;-83
2022/11/28 00:34:10;;;;;;;37.65;25.40;;;;;;;6.79;78.82;101890.16;4921495;29;20157;-81
2022/11/28 00:36:37;;;;;;;43.13;26.55;;;;;;;6.74;79.34;101883.44;4919369;29;20495;-83
2022/11/28 00:39:04;;;;;;;33.10;25.05;;;;;;;6.71;79.76;101870.41;4939505;28;20137;-83
2022/11/28 00:41:33;;;;;;;38.80;23.85;;;;;;;6.77;79.31;101862.13;4939129;28;20436;-80
2022/11/28 00:44:00;;;;;;;40.17;24.70;;;;;;;6.99;79.29;101904.97;4939648;28;20141;-80
2022/11/28 00:46:28;;;;;;;35.20;24.33;;;;;;;6.69;79.09;101862.53;4934832;28;20066;-81
2022/11/28 00:48:56;;;;;;;36.83;24.17;;;;;;;6.72;79.42;101861.53;4937957;28;20055;-81
2022/11/28 00:51:31;;;;;;;35.00;23.65;;;;;;;6.91;79.49;101906.28;4939461;28;20621;-81
2022/11/28 00:54:04;;;;;;;36.70;24.00;;;;;;;6.73;79.25;101887.84;4937860;28;20046;-80
2022/11/28 00:56:37;;;;;;;34.65;23.63;;;;;;;6.57;79.37;101865.81;4939860;28;20161;-80
2022/11/28 00:59:04;;;;;;;36.50;23.55;;;;;;;6.83;79.44;101904.06;4936829;28;20182;-80
2022/11/28 01:01:50;;;;;;;34.10;22.85;;;;;;;6.84;79.78;101905.75;4917363;29;20055;-83
2022/11/28 01:04:17;;;;;;;35.85;22.60;;;;;;;6.84;79.32;101908.41;4919544;29;20055;-81
2022/11/28 01:06:47;;;;;;;37.47;23.85;;;;;;;6.54;79.51;101837.81;4918278;29;20083;-82
2022/11/28 01:09:16;;;;;;;35.08;23.08;;;;;;;6.88;79.55;101877.44;4937877;28;20382;-82
2022/11/28 01:11:44;;;;;;;36.00;23.45;;;;;;;6.55;79.33;101825.47;4937165;28;20055;-82
2022/11/28 01:14:12;;;;;;;38.60;23.50;;;;;;;6.91;79.50;101890.47;4935157;28;20046;-82
2022/11/28 01:16:41;;;;;;;33.50;23.80;;;;;;;6.84;79.35;101876.72;4936328;28;20469;-81
2022/11/28 01:19:08;;;;;;;36.65;26.23;;;;;;;6.88;79.53;101883.56;4938476;28;20054;-82
2022/11/28 01:21:35;;;;;;;35.95;23.50;;;;;;;6.87;79.40;101860.75;4936458;28;20493;-82
2022/11/28 01:24:02;;;;;;;33.17;22.60;;;;;;;6.87;79.62;101855.47;4937620;28;20051;-81
2022/11/28 01:26:29;;;;;;;36.90;23.77;;;;;;;6.98;79.55;101863.63;4934631;28;20050;-82
2022/11/28 01:28:59;;;;;;;39.53;24.77;;;;;;;6.45;78.88;101758.31;4936151;28;20533;-79
2022/11/28 01:31:28;;;;;;;35.63;24.23;;;;;;;7.14;78.67;101850.47;4938012;28;20058;-81
2022/11/28 01:33:58;;;;;;;41.10;26.38;;;;;;;7.16;77.60;101838.03;4921350;28;20062;-82
2022/11/28 01:36:28;;;;;;;37.28;24.70;;;;;;;6.89;77.50;101790.22;4917645;29;20055;-81
2022/11/28 01:38:55;;;;;;;38.40;26.42;;;;;;;6.82;77.59;101770.38;4935043;28;20533;-82
2022/11/28 01:41:24;;;;;;;39.13;24.92;;;;;;;7.34;77.44;101827.38;4934871;28;20289;-81
2022/11/28 01:44:14;;;;;;;42.60;25.00;;;;;;;6.82;76.81;101760.69;4935508;28;20054;-80
2022/11/28 01:46:42;;;;;;;38.83;25.15;;;;;;;6.99;77.72;101798.47;4936809;28;20308;-80
2022/11/28 01:49:21;;;;;;;34.67;23.25;;;;;;;7.12;77.75;101833.00;4935276;28;20077;-81
2022/11/28 01:51:55;;;;;;;33.35;23.58;;;;;;;6.98;78.71;101826.69;4935025;28;20051;-80
2022/11/28 01:54:25;;;;;;;31.98;21.85;;;;;;;6.94;78.63;101846.28;4936553;28;20160;-80
2022/11/28 01:56:59;;;;;;;31.70;22.48;;;;;;;6.92;79.15;101842.88;4937403;28;20054;-81
2022/11/28 01:59:29;;;;;;;35.17;21.83;;;;;;;6.94;78.36;101835.72;4928867;28;20059;-81
2022/11/28 02:01:56;;;;;;;33.78;22.25;;;;;;;6.78;78.57;101827.75;4919328;28;20065;-80
2022/11/28 02:04:27;;;;;;;33.80;22.15;;;;;;;6.79;78.97;101837.38;4938554;28;20580;-82
2022/11/28 02:07:01;;;;;;;28.52;21.35;;;;;;;6.92;78.81;101832.31;4940186;28;20059;-82
2022/11/28 02:09:27;;;;;;;30.05;21.40;;;;;;;6.88;79.18;101822.00;4940910;28;20279;-81
2022/11/28 02:12:00;;;;;;;31.65;22.30;;;;;;;6.82;79.08;101825.78;4937158;28;20050;-81
2022/11/28 02:14:49;;;;;;;34.15;21.88;;;;;;;6.82;79.28;101810.84;4937543;28;21160;-81
2022/11/28 02:17:44;;;;;;;31.27;24.60;;;;;;;6.79;79.36;101802.22;4934487;28;20447;-82
2022/11/28 02:20:53;;;;;;;36.13;23.27;;;;;;;6.75;79.34;101796.25;4936232;28;20055;-81
2022/11/28 02:23:47;;;;;;;31.02;21.38;;;;;;;6.52;79.22;101781.63;4937601;28;20051;-82
2022/11/28 02:26:48;;;;;;;29.60;20.58;;;;;;;6.64;79.57;101803.88;4933974;28;20050;-83
2022/11/28 02:29:44;;;;;;;30.95;20.13;;;;;;;6.60;79.52;101799.69;4934364;28;20131;-82
2022/11/28 02:32:27;;;;;;;31.00;20.05;;;;;;;6.54;79.64;101798.25;4927189;28;20530;-81
2022/11/28 02:35:19;;;;;;;34.60;20.45;;;;;;;6.53;79.16;101803.59;4916410;29;20501;-80
2022/11/28 02:38:15;;;;;;;30.75;20.70;;;;;;;6.46;79.29;101796.94;4917137;29;20051;-83
2022/11/28 02:41:09;;;;;;;30.63;20.05;;;;;;;6.42;78.98;101785.69;4914853;29;20050;-81
2022/11/28 02:43:58;;;;;;;29.17;19.30;;;;;;;6.51;79.47;101797.56;4909122;29;20099;-81
2022/11/28 02:46:56;;;;;;;28.00;19.67;;;;;;;6.44;79.72;101790.91;4914796;29;20051;-80
2022/11/28 02:49:45;;;;;;;31.67;20.05;;;;;;;6.49;79.60;101805.56;4914482;29;20325;-82
2022/11/28 02:52:19;;;;;;;32.70;19.00;;;;;;;6.45;79.41;101796.09;4916685;29;20150;-81
2022/11/28 02:54:51;;;;;;;23.65;18.10;;;;;;;6.51;79.71;101800.22;4919942;29;20062;-83
2022/11/28 02:57:17;;;;;;;27.33;18.73;;;;;;;6.34;79.84;101772.06;4917582;29;20344;-81
2022/11/28 02:59:48;;;;;;;26.10;19.45;;;;;;;6.39;79.64;101775.31;4935313;28;20074;-81
2022/11/28 03:02:29;;;;;;;30.58;18.55;;;;;;;6.64;79.22;101799.44;4935552;28;20245;-81
2022/11/28 03:05:18;;;;;;;26.25;19.00;;;;;;;6.63;79.31;101794.28;4934818;28;20158;-82
2022/11/28 03:08:15;;;;;;;24.63;18.02;;;;;;;6.64;79.82;101783.63;4933860;28;20121;-81
2022/11/28 03:11:02;;;;;;;25.35;19.20;;;;;;;6.64;80.07;101790.69;4935176;28;20062;-81
2022/11/28 03:13:37;;;;;;;21.88;18.25;;;;;;;6.60;79.66;101787.38;4933215;28;20062;-81
2022/11/28 03:16:21;;;;;;;25.05;17.92;;;;;;;5.74;79.71;101645.97;4933273;28;20516;-81
2022/11/28 03:19:24;;;;;;;27.38;18.73;;;;;;;5.32;79.66;101566.47;4933963;28;20764;-82
2022/11/28 03:22:12;;;;;;;24.05;18.00;;;;;;;5.46;80.03;101589.47;4934262;28;20051;-81
2022/11/28 03:24:48;;;;;;;27.27;19.02;;;;;;;6.69;80.49;101787.81;4933925;28;20444;-82
2022/11/28 03:28:02;;;;;;;28.60;18.20;;;;;;;6.51;80.06;101753.56;4933349;28;20479;-81
2022/11/28 03:30:36;;;;;;;28.33;19.05;;;;;;;6.68;80.16;101783.47;4876921;29;20063;-82
2022/11/28 03:33:06;;;;;;;23.83;17.77;;;;;;;6.40;80.47;101735.66;4910159;29;20154;-81
2022/11/28 03:35:37;;;;;;;25.27;18.55;;;;;;;6.56;79.76;101751.53;4924116;28;20067;-80
2022/11/28 03:38:10;;;;;;;23.67;18.48;;;;;;;6.25;80.38;101701.34;4927941;28;20878;-83
2022/11/28 03:40:43;;;;;;;24.75;19.02;;;;;;;6.17;80.09;101684.16;4936549;28;20164;-82
2022/11/28 03:43:24;;;;;;;24.75;19.17;;;;;;;6.67;79.66;101768.56;4935559;28;20620;-81
2022/11/28 03:45:55;;;;;;;29.67;19.52;;;;;;;6.74;79.58;101764.66;4932504;28;20054;-82
2022/11/28 03:48:47;;;;;;;25.33;18.83;;;;;;;6.72;78.78;101761.25;4936586;28;20372;-81
2022/11/28 03:51:26;;;;;;;27.90;18.98;;;;;;;6.69;78.10;101756.16;4929994;28;20066;-81
2022/11/28 03:53:59;;;;;;;32.22;20.02;;;;;;;6.74;78.00;101759.38;4938761;28;20043;-83
2022/11/28 03:56:41;;;;;;;27.00;19.27;;;;;;;6.68;77.62;101749.19;4937320;28;20521;-82
2022/11/28 03:59:10;;;;;;;24.50;18.27;;;;;;;5.35;77.52;101532.06;4926666;28;20062;-82
2022/11/28 04:01:44;;;;;;;26.63;19.05;;;;;;;6.73;78.18;101765.59;4911661;29;20059;-82
2022/11/28 04:04:32;;;;;;;26.23;18.73;;;;;;;6.73;78.36;101768.25;4913237;29;20063;-80
2022/11/28 04:07:07;;;;;;;24.63;18.42;;;;;;;6.75;77.45;101769.03;4917633;28;20273;-82
2022/11/28 04:10:26;;;;;;;20.65;17.13;;;;;;;6.77;76.90;101767.13;4930970;28;20612;-79
2022/11/28 04:13:06;;;;;;;28.10;18.83;;;;;;;6.74;76.65;101759.38;4917345;28;20058;-81
2022/11/28 04:15:58;;;;;;;21.85;18.30;;;;;;;6.73;76.41;101757.69;4935504;28;20102;-80
2022/11/28 04:18:43;;;;;;;26.65;18.23;;;;;;;6.72;76.61;101762.09;4936090;28;20749;-81
2022/11/28 04:21:21;;;;;;;31.65;18.77;;;;;;;6.51;76.39;101711.34;4931429;28;20615;-80
2022/11/28 04:23:49;;;;;;;23.27;17.80;;;;;;;5.94;76.13;101610.69;4936698;28;20202;-81
2022/11/28 04:26:27;;;;;;;24.98;17.23;;;;;;;6.52;76.45;101691.94;4928259;28;20054;-82
2022/11/28 04:28:57;;;;;;;22.45;16.70;;;;;;;6.27;76.81;101658.13;4938607;28;20070;-81
2022/11/28 04:31:25;;;;;;;30.35;18.33;;;;;;;6.82;76.00;101736.94;4935197;28;20054;-82
2022/11/28 04:34:00;;;;;;;20.80;16.02;;;;;;;6.79;75.03;101744.16;4917759;28;20166;-81
2022/11/28 04:36:29;;;;;;;21.02;15.18;;;;;;;6.46;74.96;101681.75;4923010;29;20158;-81
2022/11/28 04:39:00;;;;;;;23.00;15.90;;;;;;;6.27;74.10;101636.19;4935742;28;20059;-81
2022/11/28 04:41:54;;;;;;;21.05;16.48;;;;;;;6.19;73.63;101642.75;4935043;28;20089;-81
2022/11/28 04:44:44;;;;;;;22.70;15.32;;;;;;;5.39;74.03;101492.41;4937548;28;20775;-80
2022/11/28 04:47:11;;;;;;;22.17;15.23;;;;;;;6.79;74.08;101738.88;4938392;28;20451;-82
2022/11/28 04:49:38;;;;;;;24.15;15.38;;;;;;;6.86;73.83;101756.06;4936134;28;20169;-82
2022/11/28 04:52:11;;;;;;;24.10;15.55;;;;;;;6.74;74.26;101722.44;4937503;28;20569;-79
2022/11/28 04:54:53;;;;;;;20.85;15.02;;;;;;;5.43;73.75;101510.59;4931059;28;20047;-81
2022/11/28 04:57:40;;;;;;;21.13;15.05;;;;;;;6.82;75.07;101744.84;4934069;28;20062;-81
2022/11/28 05:00:15;;;;;;;23.13;15.43;;;;;;;6.80;75.18;101736.16;4935402;28;20581;-81
2022/11/28 05:02:44;;;;;;;21.42;14.25;;;;;;;6.81;75.31;101734.34;4934323;28;20059;-81
2022/11/28 05:05:21;;;;;;;21.27;15.40;;;;;;;6.87;75.26;101728.75;4937598;28;20212;-80
2022/11/28 05:07:48;;;;;;;16.88;13.38;;;;;;;6.82;73.64;101709.66;4933632;28;20106;-81
2022/11/28 05:10:20;;;;;;;22.92;14.27;;;;;;;6.98;73.00;101729.00;4934150;28;20047;-80
2022/11/28 05:12:49;;;;;;;17.23;13.32;;;;;;;7.00;72.87;101735.03;4936231;28;20538;-81
2022/11/28 05:15:17;;;;;;;21.15;14.43;;;;;;;7.02;72.59;101742.88;4937931;28;20589;-82
2022/11/28 05:17:45;;;;;;;19.38;13.38;;;;;;;6.81;73.00;101708.81;4935976;28;20400;-81
2022/11/28 05:20:13;;;;;;;20.90;12.85;;;;;;;6.98;73.49;101747.47;4933274;28;20050;-80
2022/11/28 05:22:40;;;;;;;18.38;13.07;;;;;;;7.07;72.60;101731.13;4934472;28;20059;-81
2022/11/28 05:25:07;;;;;;;18.10;13.38;;;;;;;7.05;72.15;101733.00;4937481;28;20402;-81
2022/11/28 05:27:37;;;;;;;19.95;13.77;;;;;;;6.91;72.39;101703.88;4936127;28;20366;-81
2022/11/28 05:30:06;;;;;;;16.70;12.48;;;;;;;6.74;73.15;101680.22;4917026;29;20055;-82
2022/11/28 05:32:33;;;;;;;20.08;13.35;;;;;;;6.78;71.92;101668.56;4928863;28;20582;-81
2022/11/28 05:34:59;;;;;;;21.40;13.02;;;;;;;7.05;72.31;101722.44;4936893;28;20343;-81
2022/11/28 05:37:29;;;;;;;18.70;13.00;;;;;;;7.14;72.12;101723.72;4936297;28;20565;-82
2022/11/28 05:40:02;;;;;;;18.45;12.52;;;;;;;6.14;72.05;101560.41;4938873;28;20214;-82
2022/11/28 05:42:34;;;;;;;18.27;12.88;;;;;;;6.67;72.36;101657.72;4934762;28;20469;-82
2022/11/28 05:45:04;;;;;;;17.05;12.35;;;;;;;6.79;72.75;101683.44;4923190;28;20794;-82
2022/11/28 05:47:32;;;;;;;16.10;11.02;;;;;;;6.86;71.92;101684.81;4919521;28;20566;-81
2022/11/28 05:50:01;;;;;;;17.73;12.25;;;;;;;7.15;71.70;101724.56;4922279;28;20699;-81
2022/11/28 05:52:31;;;;;;;26.05;12.95;;;;;;;5.75;71.24;101490.47;4919981;28;20225;-81
2022/11/28 05:54:59;;;;;;;16.92;11.80;;;;;;;7.15;71.43;101727.19;4919424;29;20557;-81
2022/11/28 05:57:33;;;;;;;19.38;12.63;;;;;;;5.95;71.30;101510.47;4922994;28;20046;-81
2022/11/28 06:00:00;;;;;;;15.70;12.30;;;;;;;6.16;71.03;101547.97;4941895;28;20058;-82
2022/11/28 06:02:30;;;;;;;20.20;12.63;;;;;;;6.81;71.08;101656.03;4932945;28;20063;-81
2022/11/28 06:04:59;;;;;;;15.85;11.75;;;;;;;7.10;70.96;101718.69;4921326;29;20055;-82
2022/11/28 06:07:46;;;;;;;17.20;12.18;;;;;;;7.13;71.05;101710.59;4923468;28;20058;-80
2022/11/28 06:10:13;;;;;;;17.70;11.85;;;;;;;7.09;70.80;101701.13;4936449;28;20082;-81
2022/11/28 06:12:40;;;;;;;21.48;12.90;;;;;;;7.02;71.34;101706.78;4937151;28;20400;-81
2022/11/28 06:15:14;;;;;;;17.92;12.23;;;;;;;5.52;71.36;101451.34;4939569;28;20075;-80
2022/11/28 06:17:40;;;;;;;18.15;12.60;;;;;;;6.57;71.51;101637.13;4935858;28;20600;-79
2022/11/28 06:20:07;;;;;;;16.85;12.10;;;;;;;6.42;71.71;101596.63;4936823;28;20490;-81
2022/11/28 06:22:34;;;;;;;17.75;12.82;;;;;;;6.84;71.65;101665.56;4937459;28;20098;-79
2022/11/28 06:25:01;;;;;;;18.58;12.00;;;;;;;7.10;71.29;101713.41;4937462;28;20050;-81
2022/11/28 06:27:28;;;;;;;18.42;11.82;;;;;;;6.60;71.54;101618.50;4931553;28;20055;-81
2022/11/28 06:29:55;;;;;;;19.83;12.02;;;;;;;7.03;71.53;101671.50;4936022;28;20058;-82
2022/11/28 06:32:21;;;;;;;17.25;11.93;;;;;;;7.05;71.28;101669.63;4928666;28;20090;-81
2022/11/28 06:34:49;;;;;;;20.55;13.70;;;;;;;6.49;71.73;101586.59;4916549;29;20494;-81
2022/11/28 06:37:16;;;;;;;17.70;13.32;;;;;;;7.26;70.76;101693.97;4922168;28;20123;-79
2022/11/28 06:39:44;;;;;;;16.27;12.93;;;;;;;6.77;70.92;101619.31;4939728;28;20053;-81
2022/11/28 06:42:14;;;;;;;18.38;13.18;;;;;;;6.74;71.56;101609.78;4937739;28;20660;-81
2022/11/28 06:44:42;;;;;;;21.35;13.98;;;;;;;7.15;71.75;101679.66;4939229;28;20077;-82
2022/11/28 06:47:10;;;;;;;22.52;13.50;;;;;;;7.26;71.65;101686.03;4936319;28;20658;-82
2022/11/28 06:49:39;;;;;;;17.08;13.38;;;;;;;7.25;71.13;101680.84;4930714;28;20049;-81
2022/11/28 06:52:06;;;;;;;18.15;13.38;;;;;;;6.84;71.13;101612.75;4935351;28;20050;-81
2022/11/28 06:54:33;;;;;;;17.88;13.18;;;;;;;7.28;71.60;101680.66;4937214;28;20510;-82
2022/11/28 06:57:00;;;;;;;18.38;12.82;;;;;;;6.34;71.51;101526.81;4935378;28;20530;-82
2022/11/28 06:59:27;;;;;;;16.27;12.18;;;;;;;7.19;71.08;101668.84;4924371;28;20047;-80
2022/11/28 07:02:00;;;;;;;22.45;12.98;;;;;;;7.24;70.89;101684.41;4953497;28;20066;-82
2022/11/28 07:04:33;;;;;;;18.75;12.82;;;;;;;7.26;71.37;101688.69;4933597;28;20624;-81
2022/11/28 07:07:00;;;;;;;16.45;12.38;;;;;;;7.28;72.12;101685.94;4916336;29;20063;-83
2022/11/28 07:09:27;;;;;;;25.70;12.65;;;;;;;7.28;72.10;101680.66;4912811;28;20792;-81
2022/11/28 07:12:00;;;;;;;19.08;12.25;;;;;;;6.91;71.66;101629.94;4921775;28;20942;-81
2022/11/28 07:14:32;;;;;;;17.52;13.60;;;;;;;7.33;72.38;101691.81;4928364;28;20061;-81
2022/11/28 07:17:03;;;;;;;25.27;14.43;;;;;;;7.09;72.00;101638.63;4920526;28;20507;-84
2022/11/28 07:19:32;;;;;;;22.85;13.50;;;;;;;7.27;71.99;101665.75;4934345;28;20054;-83
2022/11/28 07:21:59;;;;;;;17.10;12.15;;;;;;;7.31;72.14;101669.06;4934143;28;20050;-80
2022/11/28 07:24:26;;;;;;;15.25;12.27;;;;;;;7.38;72.33;101676.56;4918427;28;20055;-81
2022/11/28 07:26:53;;;;;;;22.23;12.73;;;;;;;7.30;72.26;101652.34;4916523;29;20077;-83
2022/11/28 07:29:20;;;;;;;19.92;12.88;;;;;;;7.48;71.81;101666.28;4929785;28;20051;-82
2022/11/28 07:31:46;;;;;;;18.25;12.27;;;;;;;7.00;70.81;101574.00;4929420;28;20209;-81
2022/11/28 07:34:13;;;;;;;20.70;14.43;;;;;;;6.97;71.56;101557.50;4914741;28;20164;-83
2022/11/28 07:36:46;;;;;;;17.33;11.55;;;;;;;7.04;71.38;101562.31;4918961;28;20166;-81
2022/11/28 07:39:16;;;;;;;22.02;12.38;;;;;;;7.59;71.38;101645.34;4934232;28;20453;-82
2022/11/28 07:41:46;;;;;;;19.98;12.73;;;;;;;7.61;72.15;101643.47;4924869;28;20504;-82
2022/11/28 07:44:19;;;;;;;19.05;12.27;;;;;;;7.59;72.15;101631.28;4919052;28;20059;-82
2022/11/28 07:46:46;;;;;;;19.23;12.50;;;;;;;7.31;71.96;101577.47;4928691;28;20061;-83
2022/11/28 07:49:16;;;;;;;22.50;13.10;;;;;;;7.66;72.16;101627.34;4918538;28;20055;-83
2022/11/28 07:51:43;;;;;;;17.85;13.05;;;;;;;6.52;72.11;101435.19;4920926;28;20706;-82
2022/11/28 07:54:10;;;;;;;16.83;12.43;;;;;;;7.49;72.19;101594.84;4918401;29;20057;-84
2022/11/28 07:56:39;;;;;;;19.90;16.45;;;;;;;7.14;72.17;101535.38;4921394;28;20828;-83
2022/11/28 07:59:26;;;;;;;17.70;13.82;;;;;;;7.77;72.93;101638.13;4933648;28;20537;-82
2022/11/28 08:01:54;;;;;;;18.02;12.70;;;;;;;7.00;72.42;101510.63;4928227;28;20376;-83
2022/11/28 08:04:21;;;;;;;20.40;12.73;;;;;;;7.81;72.58;101628.19;4940414;28;20553;-84
2022/11/28 08:06:50;;;;;;;18.60;12.52;;;;;;;7.83;70.62;101624.53;4927866;28;20287;-83
2022/11/28 08:09:18;;;;;;;18.83;12.85;;;;;;;7.76;72.22;101611.78;4920644;28;20079;-83
2022/11/28 08:11:45;;;;;;;18.42;14.02;;;;;;;7.77;71.21;101603.75;4931043;28;20161;-83
2022/11/28 08:14:17;;;;;;;22.67;13.38;;;;;;;7.90;71.77;101631.13;4938797;28;20101;-83
2022/11/28 08:16:45;;;;;;;20.23;14.70;;;;;;;7.65;71.38;101583.38;4926291;28;20472;-84
2022/11/28 08:19:19;;;;;;;27.15;15.27;;;;;;;7.98;72.07;101628.00;4919369;28;20296;-83
2022/11/28 08:21:50;;;;;;;18.98;13.93;;;;;;;7.05;71.06;101479.50;4918514;28;20173;-83
2022/11/28 08:24:18;;;;;;;22.13;13.73;;;;;;;7.22;71.38;101501.41;4918976;28;20371;-84
2022/11/28 08:26:48;;;;;;;25.63;15.20;;;;;;;7.96;70.40;101618.47;4917114;28;20474;-83
2022/11/28 08:29:17;;;;;;;23.73;14.55;;;;;;;8.06;71.30;101636.34;4918558;28;20051;-83
2022/11/28 08:31:44;;;;;;;19.00;13.68;;;;;;;7.76;71.89;101586.19;4922765;28;20047;-83
2022/11/28 08:34:11;;;;;;;26.65;14.82;;;;;;;7.99;71.19;101613.03;4939086;28;20067;-84
2022/11/28 08:36:38;;;;;;;23.10;14.90;;;;;;;7.64;71.71;101561.34;4921759;28;20062;-82
2022/11/28 08:39:06;;;;;;;20.45;14.70;;;;;;;7.84;72.01;101588.34;4937553;28;20153;-84
2022/11/28 08:41:53;;;;;;;22.88;14.38;;;;;;;8.08;71.40;101633.59;4934261;28;20156;-84
2022/11/28 08:44:22;;;;;;;23.13;14.57;;;;;;;8.11;71.48;101636.91;4928078;28;20051;-83
2022/11/28 08:46:49;;;;;;;30.67;14.07;;;;;;;7.83;71.21;101581.38;4921636;28;20059;-82
2022/11/28 08:49:16;;;;;;;20.27;12.75;;;;;;;7.66;71.19;101542.78;4924682;28;20574;-81
2022/11/28 08:51:46;;;;;;;19.77;12.98;;;;;;;8.12;71.21;101619.22;4927588;28;20055;-82
2022/11/28 08:54:17;;;;;;;18.77;13.05;;;;;;;8.11;70.72;101617.53;4918792;29;20748;-82
2022/11/28 08:56:46;;;;;;;24.45;13.73;;;;;;;8.27;70.27;101631.50;4920814;28;20516;-80
2022/11/28 08:59:13;;;;;;;19.52;13.02;;;;;;;8.30;70.42;101631.31;4938342;28;20059;-80
2022/11/28 09:01:40;;;;;;;22.77;12.88;;;;;;;8.00;71.06;101575.03;4919335;28;20592;-82
2022/11/28 09:04:07;;;;;;;20.17;13.25;;;;;;;8.19;70.14;101599.38;4935933;28;20506;-81
2022/11/28 09:06:38;;;;;;;24.60;12.90;;;;;;;8.35;70.22;101616.00;4928076;28;20058;-81
2022/11/28 09:09:05;;;;;;;23.27;13.45;;;;;;;8.17;69.70;101585.41;4924210;28;20520;-82
2022/11/28 09:11:32;;;;;;;16.70;12.30;;;;;;;8.43;70.47;101627.94;4925880;28;20252;-81
2022/11/28 09:14:02;;;;;;;25.80;13.48;;;;;;;8.45;71.12;101618.94;4941154;28;20352;-80
2022/11/28 09:16:31;;;;;;;21.75;13.85;;;;;;;8.42;70.65;101611.19;4938455;28;20043;-80
2022/11/28 09:18:58;;;;;;;25.60;14.38;;;;;;;8.48;70.63;101625.84;4940184;28;20090;-81
2022/11/28 09:21:29;;;;;;;25.13;13.43;;;;;;;8.51;71.67;101626.47;4935041;28;20059;-81
2022/11/28 09:24:00;;;;;;;21.83;13.50;;;;;;;8.34;70.85;101600.22;4921458;29;20052;-81
2022/11/28 09:26:28;;;;;;;22.05;12.35;;;;;;;8.48;69.04;101609.97;4922806;28;20520;-81
2022/11/28 09:29:01;;;;;;;22.35;11.25;;;;;;;8.50;68.92;101616.84;4922383;29;20499;-81
2022/11/28 09:31:29;;;;;;;17.40;11.82;;;;;;;8.21;69.17;101571.06;4922696;28;20058;-82
2022/11/28 09:33:58;;;;;;;19.83;10.93;;;;;;;8.58;68.08;101621.66;4942205;28;20062;-82
2022/11/28 09:36:27;;;;;;;15.50;10.13;;;;;;;8.50;68.24;101608.06;4935416;28;20415;-82
2022/11/28 09:38:54;;;;;;;18.20;10.60;;;;;;;8.66;68.41;101634.38;4936310;28;20102;-83
2022/11/28 09:41:30;;;;;;;17.40;10.25;;;;;;;8.61;68.38;101621.44;4938946;28;20364;-82
2022/11/28 09:44:11;;;;;;;18.13;9.65;;;;;;;7.44;67.82;101427.84;4938550;28;20236;-79
2022/11/28 09:46:43;;;;;;;11.52;8.75;;;;;;;8.69;67.22;101598.00;4938278;28;20387;-79
2022/11/28 09:49:30;;;;;;;15.02;9.43;;;;;;;8.71;67.36;101614.63;4937794;28;20057;-80
2022/11/28 09:52:23;;;;;;;15.48;9.05;;;;;;;8.51;67.63;101578.84;4940017;28;20094;-82
2022/11/28 09:55:06;;;;;;;18.17;10.65;;;;;;;8.71;67.97;101614.63;4938961;28;20063;-81
2022/11/28 09:57:40;;;;;;;15.63;11.27;;;;;;;8.70;67.16;101599.66;4940110;28;20050;-82
2022/11/28 10:00:27;;;;;;;18.50;10.98;;;;;;;8.70;67.16;101601.47;4940503;28;20050;-83
2022/11/28 10:03:08;;;;;;;15.73;10.77;;;;;;;8.11;66.82;101498.53;4925098;28;20067;-83
2022/11/28 10:05:41;;;;;;;19.38;11.73;;;;;;;8.67;67.25;101597.22;4927079;28;20056;-83
2022/11/28 10:08:35;;;;;;;23.23;12.55;;;;;;;8.67;66.71;101593.75;4933264;28;20662;-83
2022/11/28 10:11:19;;;;;;;27.75;17.40;;;;;;;8.27;66.53;101533.59;4942307;28;20458;-83
2022/11/28 10:13:49;;;;;;;23.42;15.95;;;;;;;8.69;66.47;101589.16;4935932;28;20574;-83
2022/11/28 10:17:03;;;;;;;22.02;15.05;;;;;;;8.64;66.90;101584.19;4936685;28;20179;-82
2022/11/28 10:19:48;;;;;;;30.83;19.33;;;;;;;8.61;67.03;101584.38;4936165;28;20237;-84
2022/11/28 10:22:49;;;;;;;23.55;17.08;;;;;;;8.60;66.99;101584.50;4937299;28;20061;-83
2022/11/28 10:25:34;;;;;;;28.77;19.15;;;;;;;8.25;67.13;101527.59;4911162;28;20157;-79
2022/11/28 10:28:05;;;;;;;33.90;22.23;;;;;;;8.17;66.76;101500.75;4940388;28;20059;-80
2022/11/28 10:30:39;;;;;;;36.45;22.25;;;;;;;8.69;67.21;101576.81;4935023;28;20061;-81
2022/11/28 10:33:23;;;;;;;36.53;23.92;;;;;;;8.36;67.00;101532.19;4921260;28;20686;-82
2022/11/28 10:35:53;;;;;;;42.78;28.17;;;;;;;8.80;66.55;101589.31;4917425;28;20055;-83
2022/11/28 10:38:24;;;;;;;40.00;24.85;;;;;;;8.75;67.15;101594.94;4920126;28;20051;-83
2022/11/28 10:40:58;;;;;;;44.45;28.60;;;;;;;8.61;68.32;101583.53;4918155;28;20266;-82
2022/11/28 10:43:58;;;;;;;41.58;28.73;;;;;;;8.60;67.42;101582.69;4918931;28;20094;-82
2022/11/28 10:47:22;;;;;;;48.22;30.48;;;;;;;8.54;67.64;101552.19;4929695;28;20054;-80
2022/11/28 10:50:21;;;;;;;46.80;30.33;;;;;;;8.04;66.72;101462.84;4903656;28;20168;-81
2022/11/28 10:53:00;;;;;;;46.85;30.13;;;;;;;8.48;67.58;101549.09;4935528;28;20063;-82
2022/11/28 10:55:38;;;;;;;43.25;30.27;;;;;;;8.58;67.42;101566.06;4922308;28;20531;-82
2022/11/28 10:58:23;;;;;;;52.28;29.92;;;;;;;8.56;67.74;101539.69;4922999;28;20062;-81
2022/11/28 11:00:56;;;;;;;44.47;30.60;;;;;;;8.20;67.76;101476.75;4920381;29;20083;-78
2022/11/28 11:03:30;;;;;;;47.63;31.45;;;;;;;8.67;67.97;101549.59;4928556;28;20062;-81
2022/11/28 11:05:57;;;;;;;46.50;31.80;;;;;;;8.10;67.71;101462.44;4915836;29;20051;-82
2022/11/28 11:08:26;;;;;;;44.90;31.42;;;;;;;8.70;67.12;101546.72;4922517;28;20395;-82
2022/11/28 11:11:06;;;;;;;48.55;31.98;;;;;;;8.09;68.02;101460.75;4926066;28;20138;-81
2022/11/28 11:13:57;;;;;;;55.60;33.55;;;;;;;8.61;68.39;101559.72;4886947;28;20546;-80
2022/11/28 11:16:58;;;;;;;53.85;34.00;;;;;;;8.67;68.00;101539.00;4869371;28;20189;-81
2022/11/28 11:19:30;;;;;;;49.42;34.53;;;;;;;8.69;67.70;101531.81;4899959;29;20622;-82
2022/11/28 11:22:20;;;;;;;59.20;35.50;;;;;;;8.71;68.13;101515.81;4900889;29;20261;-81
2022/11/28 11:25:14;;;;;;;54.50;34.88;;;;;;;8.64;68.62;101515.38;4898970;29;20346;-82
2022/11/28 11:28:24;;;;;;;46.95;32.92;;;;;;;8.71;68.20;101511.38;4916473;29;20181;-83
2022/11/28 11:30:59;;;;;;;51.30;34.78;;;;;;;8.73;68.71;101530.63;4894197;29;20052;-82
2022/11/28 11:33:37;;;;;;;51.65;33.47;;;;;;;8.72;68.64;101509.56;4892846;29;20593;-83
2022/11/28 11:36:29;;;;;;;49.45;32.20;;;;;;;8.83;68.20;101530.03;4893539;29;20044;-81
2022/11/28 11:39:10;;;;;;;46.33;33.90;;;;;;;8.58;68.28;101473.44;4853210;29;20170;-81
2022/11/28 11:41:43;;;;;;;53.88;34.58;;;;;;;8.86;69.07;101520.09;4881713;29;20868;-83
2022/11/28 11:44:12;;;;;;;49.72;32.70;;;;;;;8.88;69.36;101519.97;4838120;28;253685;-84
2022/11/28 11:47:05;;;;;;;52.17;33.38;;;;;;;8.89;69.41;101526.97;4801369;28;254750;-82
2022/11/28 11:49:40;;;;;;;49.97;32.85;;;;;;;8.96;69.29;101515.03;4949067;28;20134;-82
2022/11/28 11:52:11;;;;;;;49.20;32.42;;;;;;;8.18;68.78;101380.81;4939116;28;20566;-83